createdAt,value
2022-10-02T00:02:33.793Z,10.25
2022-10-02T00:05:10.634Z,9.32
2022-10-02T00:07:52.406Z,9.85
2022-10-02T00:10:29.215Z,10.38
2022-10-02T00:12:58.668Z,10.43
2022-10-02T00:15:31.378Z,9.23
2022-10-02T00:18:10.164Z,8.13
2022-10-02T00:20:49.974Z,8.73
2022-10-02T00:23:49.017Z,9.23
2022-10-02T00:26:42.191Z,10.48
2022-10-02T00:29:33.730Z,8.60
2022-10-02T00:32:10.621Z,9.63
2022-10-02T00:35:15.159Z,10.40
2022-10-02T00:37:53.973Z,10.38
2022-10-02T00:40:26.799Z,9.63
2022-10-02T00:43:14.807Z,9.55
2022-10-02T00:46:27.521Z,8.65
2022-10-02T00:49:20.032Z,9.35
2022-10-02T00:52:12.714Z,9.73
2022-10-02T00:54:51.658Z,9.75
2022-10-02T00:57:56.426Z,9.20
2022-10-02T01:00:23.547Z,9.30
2022-10-02T01:03:11.127Z,11.02
2022-10-02T01:05:38.293Z,9.30
2022-10-02T01:08:06.048Z,8.73
2022-10-02T01:10:35.031Z,9.35
2022-10-02T01:13:01.946Z,8.50
2022-10-02T01:15:33.064Z,8.60
2022-10-02T01:18:02.313Z,7.25
2022-10-02T01:20:42.337Z,8.15
2022-10-02T01:23:17.008Z,8.70
2022-10-02T01:25:44.532Z,7.40
2022-10-02T01:28:12.129Z,8.25
2022-10-02T01:30:41.819Z,7.55
2022-10-02T01:33:11.019Z,8.23
2022-10-02T01:35:39.518Z,7.88
2022-10-02T01:38:10.048Z,7.97
2022-10-02T01:40:39.086Z,7.68
2022-10-02T01:43:29.542Z,7.93
2022-10-02T01:46:11.581Z,7.95
2022-10-02T01:49:13.099Z,7.97
2022-10-02T01:51:39.740Z,6.70
2022-10-02T01:54:34.235Z,7.28
2022-10-02T01:57:24.166Z,7.90
2022-10-02T01:59:59.545Z,7.65
2022-10-02T02:02:35.392Z,8.90
2022-10-02T02:05:20.894Z,8.07
2022-10-02T02:07:50.966Z,8.43
2022-10-02T02:10:25.218Z,7.47
2022-10-02T02:12:59.898Z,8.88
2022-10-02T02:15:36.899Z,8.55
2022-10-02T02:18:28.132Z,9.13
2022-10-02T02:21:13.707Z,9.15
2022-10-02T02:23:43.475Z,8.50
2022-10-02T02:26:12.631Z,8.73
2022-10-02T02:28:46.495Z,8.98
2022-10-02T02:31:19.351Z,9.52
2022-10-02T02:33:55.006Z,8.38
2022-10-02T02:36:27.212Z,8.95
2022-10-02T02:39:01.509Z,9.20
2022-10-02T02:41:34.972Z,9.27
2022-10-02T02:44:07.119Z,8.90
2022-10-02T02:46:59.604Z,9.68
2022-10-02T02:49:30.361Z,10.13
2022-10-02T02:51:59.878Z,9.30
2022-10-02T02:54:33.302Z,9.07
2022-10-02T02:57:01.583Z,9.43
2022-10-02T02:59:31.651Z,9.15
2022-10-02T03:01:59.049Z,8.07
2022-10-02T03:04:25.851Z,9.85
2022-10-02T03:07:01.096Z,9.63
2022-10-02T03:09:32.441Z,9.68
2022-10-02T03:12:14.261Z,9.52
2022-10-02T03:15:02.724Z,9.30
2022-10-02T03:17:40.199Z,9.10
2022-10-02T03:20:29.076Z,9.65
2022-10-02T03:23:01.284Z,10.20
2022-10-02T03:25:34.162Z,9.05
2022-10-02T03:28:12.068Z,9.27
2022-10-02T03:30:41.363Z,10.20
2022-10-02T03:33:12.195Z,10.30
2022-10-02T03:35:39.765Z,10.20
2022-10-02T03:38:09.832Z,10.57
2022-10-02T03:40:36.690Z,8.85
2022-10-02T03:43:04.776Z,9.68
2022-10-02T03:45:51.426Z,10.23
2022-10-02T03:48:18.187Z,9.63
2022-10-02T03:50:45.527Z,9.77
2022-10-02T03:53:20.477Z,9.38
2022-10-02T03:55:55.648Z,9.35
2022-10-02T03:58:22.650Z,9.82
2022-10-02T04:01:33.621Z,9.60
2022-10-02T04:04:14.294Z,9.32
2022-10-02T04:06:58.929Z,9.73
2022-10-02T04:09:37.085Z,9.20
2022-10-02T04:12:37.795Z,9.02
2022-10-02T04:15:15.146Z,9.50
2022-10-02T04:17:50.256Z,9.77
2022-10-02T04:20:23.811Z,10.32
2022-10-02T04:22:57.560Z,9.77
2022-10-02T04:25:29.921Z,10.77
2022-10-02T04:28:02.968Z,9.43
2022-10-02T04:30:30.373Z,10.60
2022-10-02T04:33:20.978Z,9.95
2022-10-02T04:36:03.377Z,11.02
2022-10-02T04:38:54.802Z,12.15
2022-10-02T04:41:46.526Z,11.43
2022-10-02T04:47:19.443Z,11.63
2022-10-02T04:49:49.189Z,11.65
2022-10-02T04:52:49.905Z,11.40
2022-10-02T04:55:57.411Z,11.48
2022-10-02T04:59:05.689Z,11.35
2022-10-02T05:01:58.776Z,12.10
2022-10-02T05:04:52.053Z,15.30
2022-10-02T05:07:48.082Z,16.23
2022-10-02T05:10:29.985Z,13.52
2022-10-02T05:13:09.037Z,13.13
2022-10-02T05:15:44.673Z,12.57
2022-10-02T05:18:35.847Z,13.23
2022-10-02T05:21:44.211Z,13.48
2022-10-02T05:24:23.149Z,11.50
2022-10-02T05:27:23.221Z,10.43
2022-10-02T05:30:10.411Z,9.05
2022-10-02T05:33:18.112Z,7.82
2022-10-02T05:36:12.272Z,9.27
2022-10-02T05:38:54.852Z,7.97
2022-10-02T05:41:50.241Z,9.43
2022-10-02T05:44:22.164Z,8.30
2022-10-02T05:47:01.593Z,9.73
2022-10-02T05:49:35.183Z,8.88
2022-10-02T05:52:12.155Z,9.52
2022-10-02T05:54:47.577Z,8.45
2022-10-02T05:57:27.806Z,8.95
2022-10-02T06:00:12.325Z,9.43
2022-10-02T06:02:57.514Z,9.23
2022-10-02T06:05:31.192Z,8.65
2022-10-02T06:08:02.815Z,8.13
2022-10-02T06:13:05.323Z,6.43
2022-10-02T06:15:55.723Z,6.22
2022-10-02T06:18:25.924Z,5.60
2022-10-02T06:21:00.957Z,6.70
2022-10-02T06:23:38.567Z,6.03
2022-10-02T06:26:13.187Z,6.25
2022-10-02T06:28:42.775Z,5.65
2022-10-02T06:31:40.288Z,4.88
2022-10-02T06:34:13.292Z,4.97
2022-10-02T06:37:01.744Z,4.78
2022-10-02T06:39:57.276Z,3.92
2022-10-02T06:42:49.628Z,3.58
2022-10-02T06:45:42.747Z,2.95
2022-10-02T06:48:24.917Z,2.97
2022-10-02T06:51:07.273Z,2.35
2022-10-02T06:53:51.264Z,2.25
2022-10-02T06:56:54.229Z,2.17
2022-10-02T07:00:00.130Z,1.92
2022-10-02T07:02:43.374Z,1.30
2022-10-02T07:05:28.770Z,1.63
2022-10-02T07:08:06.887Z,1.48
2022-10-02T07:10:48.693Z,1.67
2022-10-02T07:13:21.677Z,1.42
2022-10-02T07:16:09.846Z,1.45
2022-10-02T07:19:01.369Z,1.60
2022-10-02T07:21:41.779Z,1.08
2022-10-02T07:24:26.533Z,1.30
2022-10-02T07:27:09.366Z,1.00
2022-10-02T07:29:47.165Z,0.80
2022-10-02T07:32:31.147Z,1.08
2022-10-02T07:35:19.795Z,1.08
2022-10-02T07:38:05.228Z,1.20
2022-10-02T07:40:56.009Z,0.95
2022-10-02T07:43:43.980Z,1.20
2022-10-02T07:46:10.681Z,0.98
2022-10-02T07:48:44.150Z,0.90
2022-10-02T07:51:40.429Z,0.70
2022-10-02T07:54:16.164Z,0.50
2022-10-02T07:56:45.815Z,0.50
2022-10-02T07:59:16.317Z,1.02
2022-10-02T08:01:45.145Z,0.73
2022-10-02T08:04:19.000Z,0.73
2022-10-02T08:06:48.216Z,0.70
2022-10-02T08:09:18.351Z,0.90
2022-10-02T08:11:53.249Z,1.17
2022-10-02T08:14:30.978Z,0.77
2022-10-02T08:17:02.694Z,0.60
2022-10-02T08:19:35.400Z,0.65
2022-10-02T08:22:10.522Z,1.02
2022-10-02T08:24:43.070Z,0.75
2022-10-02T08:27:16.030Z,0.70
2022-10-02T08:29:52.287Z,1.20
2022-10-02T08:32:18.965Z,0.73
2022-10-02T08:34:45.689Z,1.05
2022-10-02T08:37:31.581Z,0.60
2022-10-02T08:40:36.238Z,0.85
2022-10-02T08:43:25.146Z,0.60
2022-10-02T08:46:10.872Z,1.08
2022-10-02T08:48:58.972Z,0.60
2022-10-02T08:52:02.666Z,0.70
2022-10-02T08:55:03.043Z,0.70
2022-10-02T08:57:44.823Z,0.75
2022-10-02T09:00:21.077Z,0.73
2022-10-02T09:03:05.971Z,0.82
2022-10-02T09:06:08.057Z,0.63
2022-10-02T09:08:57.479Z,0.85
2022-10-02T09:12:10.396Z,0.73
2022-10-02T09:14:50.564Z,1.00
2022-10-02T09:17:35.650Z,1.00
2022-10-02T09:20:05.218Z,0.60
2022-10-02T09:22:40.827Z,0.80
2022-10-02T09:25:26.149Z,0.65
2022-10-02T09:28:30.419Z,0.50
2022-10-02T09:31:15.319Z,0.68
2022-10-02T09:34:09.765Z,1.05
2022-10-02T09:36:46.079Z,0.70
2022-10-02T09:39:25.325Z,0.60
2022-10-02T09:42:00.240Z,0.63
2022-10-02T09:45:04.127Z,0.85
2022-10-02T09:48:22.842Z,0.77
2022-10-02T09:51:13.862Z,0.60
2022-10-02T09:54:15.675Z,0.73
2022-10-02T09:57:04.190Z,1.90
2022-10-02T09:59:58.425Z,0.73
2022-10-02T10:02:34.271Z,4.00
2022-10-02T10:05:09.059Z,0.70
2022-10-02T10:08:23.107Z,0.80
2022-10-02T10:11:19.272Z,0.70
2022-10-02T10:14:10.602Z,1.05
2022-10-02T10:17:05.853Z,0.95
2022-10-02T10:19:50.871Z,1.15
2022-10-02T10:22:35.642Z,0.80
2022-10-02T10:25:28.541Z,0.85
2022-10-02T10:28:19.739Z,0.60
2022-10-02T10:31:08.266Z,0.95
2022-10-02T10:33:50.452Z,0.70
2022-10-02T10:36:46.712Z,0.85
2022-10-02T10:39:35.802Z,1.10
2022-10-02T10:42:14.779Z,1.05
2022-10-02T10:44:50.687Z,0.77
2022-10-02T10:47:43.914Z,0.90
2022-10-02T10:50:38.960Z,1.08
2022-10-02T10:53:24.379Z,0.73
2022-10-02T10:56:09.829Z,0.85
2022-10-02T10:58:55.103Z,0.65
2022-10-02T11:01:43.192Z,0.90
2022-10-02T11:04:28.094Z,0.75
2022-10-02T11:07:09.471Z,0.68
2022-10-02T11:13:03.375Z,0.63
2022-10-02T11:15:59.431Z,0.63
2022-10-02T11:18:44.496Z,0.80
2022-10-02T11:21:35.088Z,0.88
2022-10-02T11:24:29.814Z,0.80
2022-10-02T11:27:36.090Z,1.05
2022-10-02T11:30:21.132Z,0.75
2022-10-02T11:33:11.054Z,0.98
2022-10-02T11:36:22.623Z,0.90
2022-10-02T11:39:20.021Z,0.80
2022-10-02T11:42:10.152Z,0.60
2022-10-02T11:44:51.811Z,0.68
2022-10-02T11:47:21.331Z,0.50
2022-10-02T11:50:05.440Z,0.57
2022-10-02T11:52:45.939Z,1.10
2022-10-02T11:55:22.388Z,0.75
2022-10-02T11:58:16.626Z,0.70
2022-10-02T12:01:18.056Z,0.70
2022-10-02T12:03:56.940Z,1.27
2022-10-02T12:06:44.170Z,0.65
2022-10-02T12:09:25.606Z,0.63
2022-10-02T12:14:46.050Z,1.00
2022-10-02T12:17:53.385Z,1.05
2022-10-02T12:20:38.552Z,0.90
2022-10-02T12:23:39.052Z,0.90
2022-10-02T12:26:38.463Z,0.90
2022-10-02T12:29:59.520Z,1.50
2022-10-02T12:33:03.323Z,1.55
2022-10-02T12:35:44.831Z,1.95
2022-10-02T12:38:47.820Z,1.35
2022-10-02T12:41:39.320Z,1.27
2022-10-02T12:44:38.303Z,1.20
2022-10-02T12:47:20.529Z,1.27
2022-10-02T12:49:59.760Z,1.05
2022-10-02T12:52:59.829Z,1.25
2022-10-02T12:55:53.772Z,2.35
2022-10-02T12:58:46.696Z,1.83
2022-10-02T13:01:55.162Z,1.88
2022-10-02T13:04:58.198Z,1.85
2022-10-02T13:07:43.088Z,1.70
2022-10-02T13:10:37.340Z,2.13
2022-10-02T13:13:06.852Z,1.60
2022-10-02T13:15:54.922Z,1.67
2022-10-02T13:18:25.555Z,1.30
2022-10-02T13:21:12.340Z,1.58
2022-10-02T13:24:00.599Z,1.30
2022-10-02T13:26:36.957Z,1.00
2022-10-02T13:29:19.433Z,1.35
2022-10-02T13:32:04.891Z,2.70
2022-10-02T13:35:14.353Z,2.65
2022-10-02T13:38:18.677Z,1.90
2022-10-02T13:40:51.612Z,2.03
2022-10-02T13:43:36.990Z,1.17
2022-10-02T13:46:20.380Z,1.20
2022-10-02T13:49:09.361Z,1.42
2022-10-02T13:52:10.052Z,1.40
2022-10-02T13:54:58.687Z,1.25
2022-10-02T13:57:44.304Z,0.90
2022-10-02T14:00:37.466Z,1.00
2022-10-02T14:03:20.466Z,1.20
2022-10-02T14:05:47.244Z,0.90
2022-10-02T14:08:33.248Z,0.70
2022-10-02T14:11:13.111Z,0.80
2022-10-02T14:14:18.084Z,0.93
2022-10-02T14:16:44.993Z,15.00
2022-10-02T14:19:30.684Z,16.38
2022-10-02T14:22:28.263Z,1.80
2022-10-02T14:25:27.777Z,0.80
2022-10-02T14:28:09.459Z,6.53
2022-10-02T14:30:45.105Z,2.70
2022-10-02T14:33:39.652Z,7.03
2022-10-02T14:36:25.434Z,2.33
2022-10-02T14:39:11.075Z,11.07
2022-10-02T14:42:15.373Z,8.80
2022-10-02T14:44:53.333Z,19.10
2022-10-02T14:47:26.522Z,13.35
2022-10-02T14:50:20.975Z,14.18
2022-10-02T14:53:09.103Z,9.75
2022-10-02T14:55:49.292Z,5.82
2022-10-02T14:58:26.921Z,6.13
2022-10-02T15:01:22.607Z,1.95
2022-10-02T15:04:23.802Z,2.92
2022-10-02T15:07:07.076Z,2.05
2022-10-02T15:09:39.194Z,2.55
2022-10-02T15:12:08.660Z,1.85
2022-10-02T15:14:47.968Z,1.95
2022-10-02T15:17:45.374Z,1.42
2022-10-02T15:20:34.268Z,3.60
2022-10-02T15:23:41.576Z,2.60
2022-10-02T15:26:59.400Z,19.83
2022-10-02T15:30:07.745Z,15.18
2022-10-02T15:32:34.968Z,7.15
2022-10-02T15:35:23.529Z,8.27
2022-10-02T15:38:25.555Z,6.90
2022-10-02T15:41:00.956Z,7.72
2022-10-02T15:43:46.285Z,7.60
2022-10-02T15:46:33.411Z,7.53
2022-10-02T15:49:53.456Z,8.05
2022-10-02T15:52:30.548Z,10.43
2022-10-02T15:55:20.903Z,10.68
2022-10-02T15:58:06.088Z,11.88
2022-10-02T16:01:00.938Z,12.13
2022-10-02T16:03:41.737Z,10.40
2022-10-02T16:06:53.757Z,8.67
2022-10-02T16:09:38.857Z,6.68
2022-10-02T16:12:27.411Z,5.47
2022-10-02T16:15:22.083Z,5.22
2022-10-02T16:18:07.923Z,6.13
2022-10-02T16:20:59.059Z,9.05
2022-10-02T16:23:40.603Z,7.13
2022-10-02T16:28:54.077Z,3.70
2022-10-02T16:31:46.148Z,3.40
2022-10-02T16:34:42.139Z,3.90
2022-10-02T16:37:33.090Z,5.25
2022-10-02T16:40:03.385Z,16.20
2022-10-02T16:42:53.406Z,55.72
2022-10-02T16:46:12.241Z,37.47
2022-10-02T16:48:59.234Z,138.90
2022-10-02T16:51:57.914Z,139.70
2022-10-02T16:54:45.109Z,76.72
2022-10-02T16:57:20.571Z,36.97
2022-10-02T16:59:47.483Z,23.40
2022-10-02T17:02:25.988Z,11.32
2022-10-02T17:04:58.704Z,11.02
2022-10-02T17:07:30.082Z,6.40
2022-10-02T17:10:31.410Z,4.50
2022-10-02T17:13:12.628Z,4.60
2022-10-02T17:15:55.331Z,6.38
2022-10-02T17:18:27.968Z,22.02
2022-10-02T17:21:03.829Z,51.60
2022-10-02T17:23:55.584Z,45.05
2022-10-02T17:29:17.671Z,40.38
2022-10-02T17:31:53.502Z,19.23
2022-10-02T17:34:26.104Z,13.23
2022-10-02T17:37:10.007Z,13.82
2022-10-02T17:39:42.500Z,17.63
2022-10-02T17:42:24.505Z,25.63
2022-10-02T17:45:26.629Z,22.52
2022-10-02T17:48:07.588Z,18.77
2022-10-02T17:50:46.692Z,18.55
2022-10-02T17:53:57.221Z,17.52
2022-10-02T17:56:50.910Z,15.05
2022-10-02T17:59:40.348Z,12.55
2022-10-02T18:02:14.454Z,10.93
2022-10-02T18:04:59.457Z,10.68
2022-10-02T18:08:03.960Z,9.57
2022-10-02T18:11:02.961Z,9.82
2022-10-02T18:13:42.698Z,8.15
2022-10-02T18:16:28.309Z,6.88
2022-10-02T18:19:32.691Z,6.45
2022-10-02T18:22:14.420Z,6.45
2022-10-02T18:27:49.938Z,5.95
2022-10-02T18:30:20.860Z,6.40
2022-10-02T18:32:47.783Z,13.57
2022-10-02T18:35:22.960Z,20.48
2022-10-02T18:37:57.874Z,26.40
2022-10-02T18:40:35.263Z,8.38
2022-10-02T18:43:11.526Z,7.03
2022-10-02T18:45:48.814Z,6.90
2022-10-02T18:48:34.049Z,7.30
2022-10-02T18:51:15.760Z,7.28
2022-10-02T18:57:01.750Z,4.50
2022-10-02T18:59:46.846Z,4.15
2022-10-02T19:02:38.415Z,4.75
2022-10-02T19:05:08.066Z,4.72
2022-10-02T19:08:06.327Z,5.78
2022-10-02T19:10:33.037Z,5.07
2022-10-02T19:13:21.824Z,4.70
2022-10-02T19:15:52.519Z,5.22
2022-10-02T19:18:21.130Z,10.60
2022-10-02T19:20:59.371Z,7.28
2022-10-02T19:23:28.931Z,11.10
2022-10-02T19:25:58.795Z,11.68
2022-10-02T19:28:28.847Z,8.48
2022-10-02T19:31:06.280Z,5.57
2022-10-02T19:33:41.386Z,5.10
2022-10-02T19:36:16.169Z,4.65
2022-10-02T19:38:45.049Z,3.88
2022-10-02T19:41:15.651Z,4.85
2022-10-02T19:43:48.372Z,4.13
2022-10-02T19:46:17.042Z,3.30
2022-10-02T19:48:44.209Z,3.95
2022-10-02T19:51:20.550Z,3.85
2022-10-02T19:54:02.043Z,3.35
2022-10-02T19:56:41.228Z,3.50
2022-10-02T19:59:26.342Z,4.15
2022-10-02T20:01:55.467Z,20.35
2022-10-02T20:04:25.973Z,10.63
2022-10-02T20:06:57.079Z,10.50
2022-10-02T20:09:38.404Z,8.98
2022-10-02T20:12:14.780Z,10.23
2022-10-02T20:15:01.222Z,9.95
2022-10-02T20:17:27.985Z,9.23
2022-10-02T20:19:58.016Z,8.93
2022-10-02T20:22:34.518Z,8.15
2022-10-02T20:25:11.723Z,6.72
2022-10-02T20:27:44.361Z,6.60
2022-10-02T20:30:19.582Z,7.05
2022-10-02T20:33:13.361Z,7.60
2022-10-02T20:35:45.591Z,6.70
2022-10-02T20:38:23.762Z,7.35
2022-10-02T20:40:53.500Z,9.82
2022-10-02T20:43:26.310Z,9.65
2022-10-02T20:46:28.249Z,6.95
2022-10-02T20:49:09.674Z,5.90
2022-10-02T20:52:02.030Z,6.18
2022-10-02T20:54:54.381Z,5.30
2022-10-02T20:58:00.037Z,5.47
2022-10-02T21:00:33.354Z,5.28
2022-10-02T21:03:21.471Z,5.43
2022-10-02T21:06:16.139Z,5.75
2022-10-02T21:09:01.752Z,5.25
2022-10-02T21:11:47.008Z,5.70
2022-10-02T21:14:43.583Z,6.53
2022-10-02T21:17:31.963Z,6.45
2022-10-02T21:20:53.591Z,6.38
2022-10-02T21:23:45.301Z,5.75
2022-10-02T21:26:31.731Z,5.20
2022-10-02T21:29:26.402Z,3.72
2022-10-02T21:32:23.029Z,3.88
2022-10-02T21:35:31.702Z,3.42
2022-10-02T21:38:19.933Z,3.63
2022-10-02T21:41:15.825Z,3.33
2022-10-02T21:43:54.791Z,2.50
2022-10-02T21:46:41.477Z,3.20
2022-10-02T21:49:41.445Z,3.10
2022-10-02T21:52:13.994Z,3.05
2022-10-02T21:55:35.142Z,2.88
2022-10-02T21:58:29.416Z,2.67
2022-10-02T22:01:42.643Z,2.88
2022-10-02T22:04:33.545Z,2.53
2022-10-02T22:07:22.518Z,2.55
2022-10-02T22:10:12.856Z,3.08
2022-10-02T22:12:54.869Z,2.83
2022-10-02T22:15:26.986Z,2.67
2022-10-02T22:18:42.561Z,2.65
2022-10-02T22:21:23.926Z,2.80
2022-10-02T22:24:14.885Z,2.10
2022-10-02T22:27:03.329Z,1.73
2022-10-02T22:29:47.489Z,1.65
2022-10-02T22:32:47.433Z,2.10
2022-10-02T22:35:21.185Z,1.70
2022-10-02T22:38:14.673Z,1.10
2022-10-02T22:40:59.218Z,1.10
2022-10-02T22:43:49.633Z,1.20
2022-10-02T22:46:28.489Z,1.25
2022-10-02T22:49:04.870Z,1.10
2022-10-02T22:51:50.703Z,1.17
2022-10-02T22:54:36.064Z,1.33
2022-10-02T22:57:03.627Z,1.30
2022-10-02T22:59:39.144Z,1.27
2022-10-02T23:02:14.883Z,1.10
2022-10-02T23:04:57.435Z,1.40
2022-10-02T23:07:41.545Z,1.23
2022-10-02T23:10:11.150Z,1.30
2022-10-02T23:12:55.045Z,1.60
2022-10-02T23:15:47.101Z,1.80
2022-10-02T23:18:35.532Z,1.63
2022-10-02T23:21:18.337Z,1.40
2022-10-02T23:23:50.840Z,1.75
2022-10-02T23:26:21.557Z,1.75
2022-10-02T23:28:58.989Z,2.57
2022-10-02T23:31:42.382Z,1.90
2022-10-02T23:34:39.876Z,2.40
2022-10-02T23:37:28.125Z,2.35
2022-10-02T23:40:50.301Z,2.35
2022-10-02T23:46:02.792Z,3.70
2022-10-02T23:48:32.458Z,3.55
2022-10-02T23:51:14.259Z,3.53
2022-10-02T23:54:05.542Z,3.10
2022-10-02T23:57:09.246Z,2.75
